Time;durP1;ratioP1;P1;durP2;ratioP2;P2;SDS_P1;SDS_P2;PMS_P1;PMS_P2;Temp;Humidity;BMP_temperature;BMP_pressure;BME280_temperature;BME280_humidity;BME280_pressure;Samples;Min_cycle;Max_cycle;Signal;HPM_P1;HPM_P2
2022/01/14 00:00:38;;;;;;;21.10;7.88;;;1.80;99.90;;;1.54;89.72;103215.13;5233648;28;20048;-83
2022/01/14 00:03:10;;;;;;;24.95;8.80;;;1.80;99.90;;;1.55;90.08;103209.22;5411800;22;20059;-71
2022/01/14 00:05:42;;;;;;;24.55;8.63;;;1.80;99.90;;;1.56;90.13;103205.91;5226483;28;20041;-72
2022/01/14 00:08:14;;;;;;;26.42;9.13;;;1.80;99.90;;;1.56;89.98;103203.31;5226867;28;20057;-71
2022/01/14 00:10:49;;;;;;;24.17;8.05;;;1.80;99.90;;;1.55;90.22;103196.38;5226778;28;20053;-71
2022/01/14 00:13:46;;;;;;;22.95;8.82;;;1.90;99.90;;;1.55;90.02;103201.50;5226315;28;20049;-71
2022/01/14 00:16:19;;;;;;;19.40;7.43;;;1.80;99.90;;;1.52;89.60;103201.19;5226710;28;20466;-71
2022/01/14 00:18:51;;;;;;;24.98;10.02;;;1.80;99.90;;;1.50;89.63;103192.38;5226512;28;20049;-71
2022/01/14 00:21:23;;;;;;;22.02;8.57;;;1.80;99.90;;;1.48;90.04;103193.88;5226105;28;20045;-71
2022/01/14 00:24:07;;;;;;;21.27;8.90;;;1.80;99.90;;;1.46;90.08;103191.16;5226491;28;20049;-71
2022/01/14 00:32:24;;;;;;;22.40;8.60;;;1.70;99.90;;;1.39;89.65;103182.59;5225108;28;20501;-71
2022/01/14 00:34:56;;;;;;;20.35;7.45;;;1.70;99.90;;;1.36;89.91;103176.34;5226208;28;20086;-71
2022/01/14 00:37:28;;;;;;;26.52;8.82;;;1.70;99.90;;;1.34;89.59;103177.84;5225990;28;19927;-71
2022/01/14 00:40:00;;;;;;;22.55;8.27;;;1.70;99.90;;;1.33;90.15;103183.75;5226284;28;20049;-71
2022/01/14 00:42:33;;;;;;;21.35;7.88;;;1.70;99.90;;;1.31;89.52;103179.19;5226242;28;20057;-70
2022/01/14 00:45:07;;;;;;;21.08;7.20;;;1.60;99.90;;;1.29;89.64;103176.44;5225738;28;20076;-71
2022/01/14 00:47:40;;;;;;;22.67;7.75;;;1.60;99.90;;;1.28;90.04;103174.59;5226142;28;20128;-71
2022/01/14 00:50:15;;;;;;;24.10;7.60;;;1.60;99.90;;;1.25;89.93;103169.16;5226029;28;20053;-71
2022/01/14 00:52:47;;;;;;;;;;;1.60;99.90;;;1.24;89.51;103172.47;5226457;28;20512;-71
2022/01/14 00:55:26;;;;;;;22.75;6.93;;;1.60;99.90;;;1.20;89.52;103165.16;5225831;28;19920;-71
2022/01/14 01:00:50;;;;;;;23.50;7.35;;;1.50;99.90;;;1.19;89.48;103167.56;5225711;28;20476;-71
2022/01/14 01:03:22;;;;;;;26.33;7.70;;;1.50;99.90;;;1.18;90.09;103168.31;5225594;28;20049;-70
2022/01/14 01:05:54;;;;;;;22.13;7.68;;;1.50;99.90;;;1.17;90.07;103167.38;5225784;28;20049;-71
2022/01/14 01:08:28;;;;;;;21.67;8.30;;;1.50;99.90;;;1.16;89.71;103165.56;5225444;28;20057;-71
2022/01/14 01:11:03;;;;;;;24.73;9.00;;;1.50;99.90;;;1.15;90.13;103161.16;5225855;28;20049;-71
2022/01/14 01:13:37;;;;;;;25.95;8.75;;;1.50;99.90;;;1.17;90.37;103158.75;5225718;28;20464;-71
2022/01/14 01:16:09;;;;;;;22.70;7.82;;;1.50;99.90;;;1.17;90.13;103159.66;5225203;28;20056;-71
2022/01/14 01:18:41;;;;;;;23.08;8.05;;;1.50;99.90;;;1.16;90.20;103167.22;5225296;28;20049;-70
2022/01/14 01:21:13;;;;;;;21.25;8.63;;;1.50;99.90;;;1.13;89.85;103152.38;5225620;28;20049;-72
2022/01/14 01:23:45;;;;;;;24.73;8.55;;;1.40;99.90;;;1.12;90.00;103152.22;5225766;28;20051;-71
2022/01/14 01:26:24;;;;;;;22.38;7.30;;;1.50;99.90;;;1.08;89.37;103148.38;5225936;28;20139;-72
2022/01/14 01:29:04;;;;;;;22.52;7.18;;;1.40;99.90;;;1.05;89.98;103140.38;5225177;28;20045;-71
2022/01/14 01:31:37;;;;;;;20.00;7.35;;;1.40;99.90;;;1.03;89.84;103140.16;5224981;28;20049;-71
2022/01/14 01:34:13;;;;;;;22.55;7.28;;;1.40;99.90;;;1.04;90.17;103130.81;5225104;28;20053;-72
2022/01/14 01:36:47;;;;;;;;;;;1.40;99.90;;;1.05;89.86;103137.78;5225894;28;20132;-71
2022/01/14 01:39:22;;;;;;;19.05;6.45;;;1.40;99.90;;;1.05;90.22;103140.38;5225174;28;19943;-71
2022/01/14 01:41:57;;;;;;;17.38;7.55;;;1.40;99.90;;;1.03;89.64;103136.69;5225136;28;20049;-71
2022/01/14 01:44:31;;;;;;;20.90;7.40;;;1.40;99.90;;;0.99;89.76;103129.41;5225567;28;20482;-71
2022/01/14 01:47:04;;;;;;;21.27;8.02;;;1.30;99.90;;;0.94;89.39;103128.91;5225479;28;20064;-70
2022/01/14 01:49:38;;;;;;;18.58;6.95;;;1.30;99.90;;;0.92;89.99;103129.47;5224986;28;20060;-71
2022/01/14 01:52:10;;;;;;;20.63;7.50;;;1.30;99.90;;;0.92;90.14;103129.47;5225400;28;20400;-72
2022/01/14 01:54:42;;;;;;;19.52;6.95;;;1.30;99.90;;;0.91;89.78;103131.09;5225248;28;20049;-72
2022/01/14 01:57:14;;;;;;;18.85;7.90;;;1.30;99.90;;;0.91;90.50;103127.63;5225287;28;20049;-71
2022/01/14 01:59:48;;;;;;;18.67;6.30;;;1.20;99.90;;;0.90;89.91;103133.50;5225306;28;20048;-71
2022/01/14 02:02:20;;;;;;;21.00;8.45;;;1.30;99.90;;;0.89;90.02;103135.16;5224832;28;20139;-71
2022/01/14 02:04:52;;;;;;;20.15;7.30;;;1.30;99.90;;;0.89;90.17;103134.25;5224887;28;20051;-71
2022/01/14 02:07:24;;;;;;;24.10;7.75;;;1.20;99.90;;;0.88;90.35;103138.50;5224850;28;20061;-71
2022/01/14 02:09:56;;;;;;;20.38;7.05;;;1.20;99.90;;;0.87;90.28;103136.66;5225249;28;20049;-71
2022/01/14 02:12:34;;;;;;;20.85;8.63;;;1.20;99.90;;;0.87;90.11;103130.63;5225104;28;20159;-72
2022/01/14 02:15:12;;;;;;;18.33;7.78;;;1.20;99.90;;;0.86;90.21;103129.72;5224727;28;20060;-71
2022/01/14 02:18:13;;;;;;;20.60;7.07;;;1.20;99.90;;;0.84;90.10;103122.56;5224918;28;20505;-71
2022/01/14 02:23:33;;;;;;;17.08;6.95;;;1.20;99.90;;;0.84;90.74;103114.84;5224830;28;20524;-72
2022/01/14 02:26:05;;;;;;;15.82;6.75;;;1.20;99.90;;;0.84;90.31;103114.84;5224680;28;20140;-70
2022/01/14 02:28:37;;;;;;;18.80;6.63;;;1.20;99.90;;;0.84;90.21;103114.84;5224936;28;20248;-71
2022/01/14 02:31:10;;;;;;;21.52;7.43;;;1.20;99.90;;;0.84;90.56;103110.63;5224961;28;20055;-72
2022/01/14 02:33:42;;;;;;;20.20;7.90;;;1.20;99.90;;;0.83;90.15;103106.25;5224749;28;20410;-71
2022/01/14 02:36:15;;;;;;;17.40;6.80;;;1.20;99.90;;;0.82;90.20;103107.91;5224421;28;20136;-71
2022/01/14 02:38:48;;;;;;;16.85;6.97;;;1.20;99.90;;;0.81;90.40;103106.09;5224625;28;20059;-71
2022/01/14 02:41:20;;;;;;;20.80;6.65;;;1.20;99.90;;;0.82;90.20;103107.00;5224923;28;20055;-71
2022/01/14 02:43:52;;;;;;;18.92;7.18;;;1.20;99.90;;;0.85;91.15;103112.47;5224958;28;20103;-71
2022/01/14 02:46:24;;;;;;;21.98;7.38;;;1.20;99.90;;;0.86;90.33;103113.41;5228467;28;20049;-71
2022/01/14 02:48:56;;;;;;;17.98;7.00;;;1.20;99.90;;;0.83;90.60;103108.81;5228110;28;20052;-71
2022/01/14 02:51:29;;;;;;;16.58;7.00;;;1.20;99.90;;;0.81;90.62;103111.22;5228091;28;20059;-71
2022/01/14 02:54:12;;;;;;;18.88;6.55;;;1.20;99.90;;;0.79;90.06;103107.56;5227802;28;20049;-71
2022/01/14 02:56:47;;;;;;;14.13;6.47;;;1.20;99.90;;;0.79;90.55;103106.66;5228415;28;20083;-72
2022/01/14 02:59:21;;;;;;;;;;;1.10;99.90;;;0.77;90.24;103103.91;5228639;28;20049;-71
2022/01/14 03:01:57;;;;;;;17.90;5.53;;;1.10;99.90;;;0.77;89.97;103101.34;5228170;28;20399;-71
2022/01/14 03:04:30;;;;;;;15.90;6.13;;;1.10;99.90;;;0.77;90.13;103100.44;5227842;28;20055;-71
2022/01/14 03:07:04;;;;;;;17.52;6.22;;;1.10;99.90;;;0.74;89.72;103106.16;5228171;28;20474;-71
2022/01/14 03:09:38;;;;;;;15.85;6.65;;;1.10;99.90;;;0.72;90.05;103104.16;5228179;28;20049;-71
2022/01/14 03:12:11;;;;;;;18.02;5.72;;;1.10;99.90;;;0.69;90.41;103112.41;5227688;28;20053;-71
2022/01/14 03:14:43;;;;;;;19.98;6.43;;;1.10;99.90;;;0.67;89.87;103113.00;5227958;28;20053;-71
2022/01/14 03:17:15;;;;;;;17.13;6.97;;;1.00;99.90;;;0.65;90.02;103110.28;5227518;28;20044;-71
2022/01/14 03:19:48;;;;;;;19.75;6.40;;;1.00;99.90;;;0.62;89.80;103117.63;5227711;28;20055;-71
2022/01/14 03:22:27;;;;;;;15.77;6.55;;;1.00;99.90;;;0.61;89.72;103112.31;5227519;28;20053;-72
2022/01/14 03:27:48;;;;;;;16.77;6.63;;;1.00;99.90;;;0.57;90.29;103100.78;5227534;28;20056;-71
2022/01/14 03:30:20;;;;;;;20.27;6.15;;;0.90;99.90;;;0.56;90.09;103101.53;5227748;28;20049;-71
2022/01/14 03:32:52;;;;;;;16.92;6.22;;;0.90;99.90;;;0.55;90.00;103099.72;5227598;28;20049;-71
2022/01/14 03:35:24;;;;;;;18.10;6.20;;;0.90;99.90;;;0.56;90.22;103095.50;5227273;28;20059;-71
2022/01/14 03:37:58;;;;;;;13.23;5.75;;;0.90;99.90;;;0.54;90.33;103082.50;5227546;28;20071;-71
2022/01/14 03:40:30;;;;;;;17.13;6.38;;;0.90;99.90;;;0.53;90.42;103072.97;5227601;28;20049;-71
2022/01/14 03:43:02;;;;;;;16.88;6.60;;;0.90;99.90;;;0.52;90.09;103084.91;5227234;28;20053;-71
2022/01/14 03:45:35;;;;;;;17.77;5.68;;;0.90;99.90;;;0.51;90.32;103079.56;5226991;28;20052;-71
2022/01/14 03:48:07;;;;;;;18.88;6.28;;;0.90;99.90;;;0.52;90.13;103090.03;5227243;28;20049;-71
2022/01/14 03:50:39;;;;;;;21.13;6.85;;;0.90;99.90;;;0.52;90.33;103084.91;5227411;28;20055;-71
2022/01/14 03:53:13;;;;;;;20.77;6.50;;;0.90;99.90;;;0.51;89.83;103083.03;5227360;28;20136;-72
2022/01/14 03:55:45;;;;;;;18.55;6.97;;;0.90;99.90;;;0.52;89.84;103073.69;5226857;28;20048;-72
2022/01/14 03:58:18;;;;;;;17.83;6.55;;;0.90;99.90;;;0.53;90.43;103070.41;5226907;28;20041;-72
2022/01/14 04:00:50;;;;;;;18.52;6.47;;;0.90;99.90;;;0.55;90.09;103061.22;5227185;28;20041;-72
2022/01/14 04:03:21;;;;;;;21.67;7.15;;;0.90;99.90;;;0.55;90.75;103048.38;5226897;28;20053;-72
2022/01/14 04:05:54;;;;;;;21.73;6.38;;;0.90;99.90;;;0.57;90.47;103044.31;5226572;28;20053;-72
2022/01/14 04:08:27;;;;;;;29.10;10.77;;;0.90;99.90;;;0.55;90.29;103040.69;5227096;28;20146;-72
2022/01/14 04:11:01;;;;;;;32.05;10.77;;;0.90;99.90;;;0.54;90.10;103037.19;5227029;28;20424;-69
2022/01/14 04:13:43;;;;;;;27.85;8.88;;;0.90;99.90;;;0.53;90.32;103040.50;5226928;28;20056;-71
2022/01/14 04:16:17;;;;;;;31.15;10.88;;;0.90;99.90;;;0.53;90.67;103039.59;5226765;28;20051;-71
2022/01/14 04:18:51;;;;;;;50.25;17.35;;;0.90;99.90;;;0.51;90.56;103036.84;5226547;28;20052;-72
2022/01/14 04:21:23;;;;;;;40.97;12.95;;;0.90;99.90;;;0.53;91.08;103044.75;5226562;28;20077;-72
2022/01/14 04:23:56;;;;;;;45.30;15.38;;;0.90;99.90;;;0.55;90.83;103040.69;5226293;28;20059;-72
2022/01/14 04:26:28;;;;;;;38.17;13.38;;;0.90;99.90;;;0.54;90.76;103041.44;5226431;28;20057;-71
2022/01/14 04:29:00;;;;;;;27.90;9.00;;;0.90;99.90;;;0.54;91.19;103036.28;5226289;28;20053;-71
2022/01/14 04:31:32;;;;;;;24.65;9.40;;;0.90;99.90;;;0.53;91.05;103031.91;5226407;28;20044;-71
2022/01/14 04:34:05;;;;;;;28.27;9.43;;;0.90;99.90;;;0.52;91.03;103037.75;5226532;28;20055;-71
2022/01/14 04:36:37;;;;;;;29.60;9.52;;;0.90;99.90;;;0.49;90.58;103035.78;5226272;28;20086;-71
2022/01/14 04:39:10;;;;;;;30.02;10.25;;;0.80;99.90;;;0.48;90.29;103026.25;5226498;28;20070;-71
2022/01/14 04:41:42;;;;;;;23.35;8.88;;;0.80;99.90;;;0.47;90.09;103027.00;5226133;28;20048;-70
2022/01/14 04:44:14;;;;;;;25.13;8.73;;;0.80;99.90;;;0.45;90.67;103028.47;5226012;28;20055;-71
2022/01/14 04:47:02;;;;;;;19.92;6.72;;;0.80;99.90;;;0.46;90.77;103022.63;5226307;28;20041;-71
2022/01/14 04:49:34;;;;;;;16.73;6.00;;;0.80;99.90;;;0.52;91.10;103022.34;5226347;28;20061;-71
2022/01/14 04:52:07;;;;;;;23.25;8.20;;;0.90;99.90;;;0.55;92.07;103017.56;5226275;28;20044;-71
2022/01/14 04:54:40;;;;;;;20.40;7.57;;;0.90;99.90;;;0.62;91.96;103016.59;5226169;28;20049;-71
2022/01/14 04:57:16;;;;;;;19.23;8.00;;;1.00;99.90;;;0.60;92.58;103010.38;5226067;28;20492;-71
2022/01/14 04:59:48;;;;;;;22.10;8.02;;;1.00;99.90;;;0.60;92.44;103006.16;5225830;28;20049;-71
2022/01/14 05:02:20;;;;;;;20.88;7.43;;;1.00;99.90;;;0.63;92.36;103003.00;5225622;28;20048;-71
2022/01/14 05:04:55;;;;;;;17.00;6.75;;;1.10;99.90;;;0.63;92.47;103000.44;5225938;28;20075;-71
2022/01/14 05:07:27;;;;;;;19.70;7.13;;;1.00;99.90;;;0.64;92.08;102999.69;5225209;28;20052;-71
2022/01/14 05:10:18;;;;;;;23.67;6.82;;;1.00;99.90;;;0.61;91.67;103007.06;5225699;28;20053;-71
2022/01/14 05:12:50;;;;;;;19.90;6.20;;;1.00;99.90;;;0.57;91.37;103010.94;5225993;28;20574;-71
2022/01/14 05:15:23;;;;;;;19.27;6.47;;;1.00;99.90;;;0.51;91.10;103010.28;5225808;28;20505;-71
2022/01/14 05:17:55;;;;;;;16.15;6.85;;;0.90;99.90;;;0.50;91.70;103016.16;5225973;28;20051;-71
2022/01/14 05:20:27;;;;;;;17.70;6.95;;;0.90;99.90;;;0.48;91.06;103016.00;5229796;28;20493;-71
2022/01/14 05:22:59;;;;;;;18.33;7.10;;;0.90;99.90;;;0.48;91.45;103020.22;5225680;28;20048;-70
2022/01/14 05:25:32;;;;;;;18.52;7.40;;;0.90;99.90;;;0.48;91.31;103021.13;5225436;28;20049;-70
2022/01/14 05:28:05;;;;;;;15.57;6.22;;;0.90;99.90;;;0.45;91.21;103019.84;5225978;28;20041;-71
2022/01/14 05:30:37;;;;;;;21.40;7.07;;;0.80;99.90;;;0.44;91.38;103015.47;5226157;28;20049;-71
2022/01/14 05:33:09;;;;;;;19.20;7.00;;;0.80;99.90;;;0.40;91.32;103011.69;5225904;28;20413;-71
2022/01/14 05:35:41;;;;;;;21.17;8.45;;;0.80;99.90;;;0.39;91.05;103003.78;5226206;28;20466;-70
2022/01/14 05:38:13;;;;;;;23.27;8.60;;;0.80;99.90;;;0.38;90.69;103009.66;5226314;28;20477;-71
2022/01/14 05:40:47;;;;;;;19.15;7.22;;;0.70;99.90;;;0.35;91.04;103007.69;5230172;28;20045;-71
2022/01/14 05:43:19;;;;;;;19.30;7.80;;;0.70;99.90;;;0.33;90.75;103014.31;5226079;28;20055;-72
2022/01/14 05:45:51;;;;;;;21.27;8.00;;;0.70;99.90;;;0.33;90.83;103023.66;5226066;28;20049;-71
2022/01/14 05:48:23;;;;;;;22.33;7.20;;;0.70;99.90;;;0.28;90.88;103025.72;5226158;28;20048;-70
2022/01/14 05:50:55;;;;;;;19.95;7.25;;;0.70;99.90;;;0.25;90.53;103030.47;5225704;28;20055;-70
2022/01/14 05:53:27;;;;;;;19.98;7.00;;;0.60;99.90;;;0.22;90.72;103020.81;5225725;28;20056;-70
2022/01/14 05:56:00;;;;;;;18.23;6.60;;;0.60;99.90;;;0.20;90.47;103031.66;5226018;28;20059;-70
2022/01/14 05:58:32;;;;;;;20.92;8.45;;;0.60;99.90;;;0.17;90.19;103026.16;5229501;28;20045;-70
2022/01/14 06:01:04;;;;;;;18.33;6.63;;;0.60;99.90;;;0.15;90.77;103025.09;5225933;28;20048;-70
2022/01/14 06:03:36;;;;;;;21.70;6.28;;;0.50;99.90;;;0.13;90.95;103018.84;5246631;22;20047;-78
2022/01/14 06:06:08;;;;;;;18.73;7.03;;;0.50;99.90;;;0.13;90.50;103029.09;5219081;28;20051;-77
2022/01/14 06:08:40;;;;;;;23.05;7.72;;;0.50;99.90;;;0.11;90.85;103028.94;5226904;28;20053;-78
2022/01/14 06:11:14;;;;;;;17.05;7.30;;;0.50;99.90;;;0.10;90.34;103031.34;5226403;28;20056;-78
2022/01/14 06:13:46;;;;;;;18.23;7.50;;;0.50;99.90;;;0.06;90.70;103022.38;5226260;28;20060;-77
2022/01/14 06:16:18;;;;;;;20.02;7.10;;;0.50;99.90;;;0.07;90.73;103033.59;5226575;28;20044;-79
2022/01/14 06:18:50;;;;;;;22.45;7.38;;;0.50;99.90;;;0.05;90.35;103035.03;5228924;28;20045;-79
2022/01/14 06:21:22;;;;;;;19.02;7.10;;;0.40;99.90;;;0.05;90.64;103028.25;5230755;28;20053;-78
2022/01/14 06:23:54;;;;;;;13.75;6.45;;;0.40;99.90;;;0.05;90.50;103030.81;5230074;28;20051;-78
2022/01/14 06:26:27;;;;;;;19.65;7.43;;;0.40;99.90;;;0.03;90.18;103022.06;5230538;28;20134;-78
2022/01/14 06:28:59;;;;;;;18.55;7.90;;;0.40;99.90;;;0.06;90.45;103026.59;5230304;28;20048;-78
2022/01/14 06:31:31;;;;;;;20.10;7.47;;;0.40;99.90;;;0.07;90.13;103021.66;5230307;28;20055;-77
2022/01/14 06:34:03;;;;;;;16.38;6.65;;;0.40;99.90;;;0.07;90.44;103024.22;5230170;28;20136;-78
2022/01/14 06:36:35;;;;;;;18.83;7.38;;;0.50;99.90;;;0.06;90.80;103012.13;5230713;28;20059;-78
2022/01/14 06:39:07;;;;;;;21.05;8.13;;;0.40;99.90;;;0.03;90.20;103016.00;5230499;28;20044;-77
2022/01/14 06:41:41;;;;;;;17.30;6.53;;;0.50;99.90;;;0.03;90.89;103019.47;5230626;28;20422;-78
2022/01/14 06:44:13;;;;;;;18.42;6.68;;;0.40;99.90;;;0.01;90.66;103012.38;5229996;28;20411;-78
2022/01/14 06:46:44;;;;;;;16.80;6.80;;;0.40;99.90;;;0.00;90.75;103016.59;5230320;28;20049;-78
2022/01/14 06:49:16;;;;;;;17.88;6.50;;;0.40;99.90;;;0.00;90.75;103019.16;5229976;28;20079;-77
2022/01/14 06:51:48;;;;;;;19.70;7.38;;;0.40;99.90;;;-0.01;90.59;103022.44;5230224;28;20396;-78
2022/01/14 06:54:20;;;;;;;15.77;5.85;;;0.40;99.90;;;-0.04;90.19;103011.84;5229408;28;20059;-79
2022/01/14 06:56:53;;;;;;;16.77;6.93;;;0.40;99.90;;;-0.05;90.56;103027.97;5229994;28;20487;-78
2022/01/14 06:59:25;;;;;;;18.35;6.60;;;0.40;99.90;;;-0.09;90.24;103011.31;5232877;28;20060;-78
2022/01/14 07:01:57;;;;;;;15.93;5.15;;;0.30;99.90;;;-0.09;90.14;103015.53;5233645;28;20049;-77
2022/01/14 07:04:29;;;;;;;19.67;6.40;;;0.30;99.90;;;-0.09;90.19;103016.44;5232757;28;20056;-77
2022/01/14 07:07:01;;;;;;;15.50;6.75;;;0.30;99.90;;;-0.13;90.43;103006.59;5232783;28;20049;-77
2022/01/14 07:09:35;;;;;;;14.32;6.38;;;0.30;99.90;;;-0.12;89.78;103007.53;5232127;28;20048;-76
2022/01/14 07:12:09;;;;;;;19.23;6.28;;;0.30;99.90;;;-0.04;90.04;103014.41;5232758;28;20056;-77
2022/01/14 07:14:41;;;;;;;19.92;5.93;;;0.30;99.90;;;-0.07;89.78;103007.25;5232886;28;20053;-77
2022/01/14 07:17:13;;;;;;;19.65;5.90;;;0.30;99.90;;;-0.02;90.09;103005.22;5231668;28;20049;-76
2022/01/14 07:19:49;;;;;;;18.60;6.28;;;0.40;99.90;;;-0.05;90.08;103008.38;5232874;28;20053;-78
2022/01/14 07:22:22;;;;;;;18.25;6.50;;;0.30;99.90;;;-0.05;90.27;103004.91;5233274;28;20522;-76
2022/01/14 07:24:54;;;;;;;17.92;6.95;;;0.30;99.90;;;-0.11;90.09;102986.25;5231466;28;20079;-77
2022/01/14 07:27:28;;;;;;;17.40;6.35;;;0.30;99.90;;;-0.05;90.65;102994.66;5231347;28;20545;-78
2022/01/14 07:30:00;;;;;;;12.80;5.65;;;0.30;99.90;;;-0.04;90.61;102999.03;5229998;28;20122;-77
2022/01/14 07:32:32;;;;;;;15.90;6.30;;;0.40;99.90;;;-0.03;90.14;102995.72;5230436;28;20049;-77
2022/01/14 07:35:05;;;;;;;14.90;6.13;;;0.40;99.90;;;-0.01;90.92;103010.53;5229794;28;20049;-77
2022/01/14 07:37:38;;;;;;;18.40;6.90;;;0.40;99.90;;;0.01;90.27;103002.13;5229173;28;20045;-78
2022/01/14 07:40:11;;;;;;;16.63;6.53;;;0.40;99.90;;;0.03;90.86;103003.19;5230006;28;20517;-76
2022/01/14 07:42:44;;;;;;;15.32;5.53;;;0.40;99.90;;;0.01;90.67;102992.78;5229734;28;20056;-77
2022/01/14 07:45:16;;;;;;;22.25;7.45;;;0.40;99.90;;;0.03;90.80;102998.06;5228620;28;20091;-77
2022/01/14 07:47:48;;;;;;;18.02;6.18;;;0.40;99.90;;;0.06;91.22;102985.56;5228568;28;20059;-76
2022/01/14 07:50:20;;;;;;;15.27;6.13;;;0.40;99.90;;;0.09;90.93;102988.50;5228274;28;20052;-78
2022/01/14 07:52:52;;;;;;;17.52;6.57;;;0.50;99.90;;;0.13;90.91;102999.28;5228216;28;20055;-77
2022/01/14 07:55:24;;;;;;;19.50;7.03;;;0.50;99.90;;;0.05;91.02;103007.72;5228098;28;20053;-77
2022/01/14 07:57:58;;;;;;;20.85;6.00;;;0.50;99.90;;;0.14;90.34;103018.13;5228529;28;20147;-77
2022/01/14 08:00:31;;;;;;;14.73;6.00;;;0.50;99.90;;;0.04;90.72;103008.47;5228231;28;20059;-78
2022/01/14 08:03:03;;;;;;;17.23;6.55;;;0.50;99.90;;;0.14;90.51;103020.69;5228366;28;20059;-78
2022/01/14 08:05:35;;;;;;;14.65;6.35;;;0.50;99.90;;;0.15;90.62;103017.38;5231740;28;20049;-77
2022/01/14 08:08:07;;;;;;;17.17;6.07;;;0.50;99.90;;;0.16;90.05;103030.38;5232603;28;20080;-78
2022/01/14 08:10:39;;;;;;;17.77;6.43;;;0.50;99.90;;;0.19;90.44;103030.69;5232458;28;20391;-77
2022/01/14 08:13:13;;;;;;;15.27;5.85;;;0.50;99.90;;;0.17;90.15;103037.31;5231999;28;20048;-78
2022/01/14 08:15:45;;;;;;;14.45;6.05;;;0.50;99.90;;;0.19;90.59;103034.94;5231902;28;20060;-77
2022/01/14 08:18:17;;;;;;;17.80;6.35;;;0.60;99.90;;;0.20;90.26;103037.69;5231583;28;20067;-77
2022/01/14 08:20:49;;;;;;;16.73;6.80;;;0.60;99.90;;;0.21;90.50;103026.69;5230578;28;20053;-77
2022/01/14 08:23:21;;;;;;;16.65;6.90;;;0.60;99.90;;;0.23;90.25;103020.06;5231164;28;20049;-77
2022/01/14 08:25:55;;;;;;;17.15;6.53;;;0.60;99.90;;;0.29;90.39;103039.44;5231606;28;20059;-77
2022/01/14 08:28:29;;;;;;;16.45;6.63;;;0.60;99.90;;;0.29;90.37;103031.75;5230705;28;20135;-78
2022/01/14 08:31:01;;;;;;;20.75;6.50;;;0.60;99.90;;;0.31;90.11;103041.44;5229638;28;20499;-77
2022/01/14 08:33:33;;;;;;;19.00;6.22;;;0.60;99.90;;;0.34;90.60;103041.78;5230085;28;20049;-77
2022/01/14 08:36:06;;;;;;;14.98;6.45;;;0.60;99.90;;;0.32;90.67;103021.81;5229748;28;20056;-77
2022/01/14 08:38:38;;;;;;;17.83;6.32;;;0.70;99.90;;;0.43;90.84;103022.25;5229257;28;20045;-78
2022/01/14 08:41:10;;;;;;;17.73;7.03;;;0.70;99.90;;;0.48;91.14;103012.50;5228759;28;20415;-75
2022/01/14 08:43:46;;;;;;;19.42;6.50;;;0.80;99.90;;;0.57;91.44;103023.78;5229059;28;20048;-77
2022/01/14 08:46:18;;;;;;;16.92;7.22;;;0.90;99.90;;;0.61;90.61;103031.09;5228493;28;20140;-78
2022/01/14 08:48:50;;;;;;;18.40;7.53;;;0.90;99.90;;;0.64;90.71;103023.72;5228049;28;20049;-76
2022/01/14 08:51:22;;;;;;;20.30;7.78;;;1.00;99.90;;;0.68;91.22;103024.97;5229518;28;20124;-77
2022/01/14 08:53:54;;;;;;;18.80;8.10;;;1.00;99.90;;;0.73;91.47;103027.31;5227348;28;20053;-78
2022/01/14 08:56:26;;;;;;;20.52;7.68;;;1.00;99.90;;;0.76;91.48;103019.91;5230942;28;20051;-78
2022/01/14 08:59:00;;;;;;;22.13;8.02;;;1.10;99.90;;;0.88;91.81;103025.50;5235201;28;20055;-77
2022/01/14 09:01:32;;;;;;;15.77;7.28;;;1.20;99.90;;;0.88;91.60;103025.50;5233690;28;20053;-77
2022/01/14 09:04:04;;;;;;;18.77;7.13;;;1.20;99.90;;;0.95;91.33;103022.84;5232998;28;20699;-77
2022/01/14 09:06:37;;;;;;;19.08;7.18;;;1.30;99.90;;;1.01;91.54;103017.47;5230556;28;20049;-78
2022/01/14 09:09:09;;;;;;;18.75;6.90;;;1.30;99.90;;;1.08;91.67;103012.22;5233509;28;20044;-77
2022/01/14 09:11:41;;;;;;;17.40;6.68;;;1.40;99.90;;;1.13;91.72;103013.66;5232936;28;20053;-77
2022/01/14 09:14:15;;;;;;;13.95;6.55;;;1.40;99.90;;;1.20;91.51;103010.09;5232402;28;20052;-78
2022/01/14 09:16:47;;;;;;;18.58;7.32;;;1.50;99.90;;;1.23;91.65;103006.16;5232775;28;20055;-77
2022/01/14 09:19:20;;;;;;;20.95;7.78;;;1.60;99.90;;;1.31;91.78;102999.31;5231462;28;20051;-77
2022/01/14 09:21:52;;;;;;;21.48;6.63;;;1.60;99.90;;;1.34;91.83;103005.66;5231977;28;20072;-77
2022/01/14 09:24:24;;;;;;;16.88;7.25;;;1.60;99.90;;;1.40;91.98;103001.94;5230224;28;20426;-78
2022/01/14 09:26:56;;;;;;;18.70;7.25;;;1.70;99.90;;;1.45;92.08;103008.47;5230506;28;20068;-78
2022/01/14 09:29:30;;;;;;;20.70;7.68;;;1.80;99.90;;;1.51;92.03;103007.47;5229902;28;20495;-77
2022/01/14 09:32:02;;;;;;;15.48;6.85;;;1.80;99.90;;;1.54;92.07;102997.50;5231083;28;20131;-77
2022/01/14 09:34:35;;;;;;;17.10;6.68;;;1.80;99.90;;;1.57;92.03;102997.84;5229136;28;20041;-77
2022/01/14 09:37:07;;;;;;;14.27;7.05;;;1.90;99.90;;;1.65;92.24;103003.78;5229958;28;20049;-76
2022/01/14 09:39:43;;;;;;;18.60;7.80;;;2.00;99.90;;;1.75;92.12;103006.53;5232996;28;20048;-77
2022/01/14 09:42:15;;;;;;;;;;;2.00;99.90;;;1.83;92.01;102999.66;5232969;28;20056;-76
2022/01/14 09:44:48;;;;;;;16.42;7.00;;;2.10;99.90;;;1.96;91.92;103010.50;5231638;28;19932;-77
2022/01/14 09:47:21;;;;;;;18.23;7.25;;;2.20;99.90;;;2.09;91.88;102995.56;5230375;28;20053;-76
2022/01/14 09:49:54;;;;;;;18.30;6.50;;;2.30;99.90;;;2.25;91.85;103008.34;5231767;28;20055;-77
2022/01/14 09:52:26;;;;;;;18.23;6.65;;;2.40;99.90;;;2.40;91.35;103009.00;5229809;28;20049;-77
2022/01/14 09:54:58;;;;;;;18.95;8.05;;;2.50;99.90;;;2.61;91.16;103020.63;5235041;28;20466;-76
2022/01/14 09:57:30;;;;;;;15.18;7.88;;;2.60;99.90;;;2.73;90.72;103012.44;5234259;28;20131;-77
2022/01/14 10:00:06;;;;;;;18.00;6.55;;;2.70;99.90;;;2.79;90.25;103007.00;5233755;28;20057;-77
2022/01/14 10:02:40;;;;;;;16.73;7.35;;;2.80;99.90;;;2.95;89.82;103010.38;5231997;28;20049;-79
2022/01/14 10:05:34;;;;;;;16.75;6.57;;;3.00;99.90;;;3.16;89.21;103016.75;5233793;28;20052;-78
2022/01/14 10:08:19;;;;;;;16.98;6.25;;;3.10;99.90;;;3.28;88.58;103001.59;5233122;28;20057;-78
2022/01/14 10:10:56;;;;;;;18.13;7.03;;;3.20;99.90;;;3.39;87.79;103010.38;5232775;28;20139;-78
2022/01/14 10:13:31;;;;;;;16.38;7.15;;;3.30;99.90;;;3.47;87.63;103009.50;5235428;28;20045;-79
2022/01/14 10:16:07;;;;;;;15.63;7.30;;;3.50;99.90;;;3.61;87.19;103018.59;5235838;28;20055;-79
2022/01/14 10:18:40;;;;;;;18.30;6.78;;;3.60;99.90;;;3.77;86.78;103022.78;5234820;28;20049;-79
2022/01/14 10:21:12;;;;;;;15.82;6.55;;;3.70;99.90;;;3.88;86.33;103010.94;5234030;28;20060;-78
2022/01/14 10:23:47;;;;;;;16.45;6.90;;;3.80;99.90;;;4.01;86.02;103024.25;5233638;28;20045;-77
2022/01/14 10:26:20;;;;;;;18.27;6.97;;;3.90;99.90;;;4.14;85.37;103030.63;5234425;28;20069;-78
2022/01/14 10:29:00;;;;;;;16.50;7.20;;;4.00;99.90;;;4.26;85.04;103021.47;5233779;28;20120;-78
2022/01/14 10:31:35;;;;;;;13.27;6.13;;;4.10;99.90;;;4.36;84.64;103014.72;5233832;28;20045;-79
2022/01/14 10:34:10;;;;;;;17.48;7.07;;;4.20;99.90;;;4.49;84.60;103015.88;5233971;28;20053;-78
2022/01/14 10:36:44;;;;;;;14.18;6.53;;;4.30;99.90;;;4.56;84.23;103014.03;5234335;28;20053;-78
2022/01/14 10:39:22;;;;;;;13.93;6.13;;;4.40;99.90;;;4.70;83.79;103012.75;5233499;28;20055;-78
2022/01/14 10:41:56;;;;;;;18.80;7.50;;;4.50;99.90;;;4.81;83.21;103012.06;5233189;28;20049;-78
2022/01/14 10:44:30;;;;;;;16.77;6.88;;;4.60;99.90;;;4.90;83.36;103017.19;5232727;28;20051;-78
2022/01/14 10:47:15;;;;;;;21.65;7.90;;;4.70;99.90;;;4.90;82.91;103005.19;5233929;28;20518;-78
2022/01/14 10:49:50;;;;;;;18.83;6.75;;;4.80;99.90;;;4.97;82.41;102998.91;5233681;28;20422;-78
2022/01/14 10:52:26;;;;;;;13.90;6.13;;;4.80;99.90;;;5.08;81.90;103013.69;5234085;28;20057;-78
2022/01/14 10:55:00;;;;;;;17.48;6.93;;;4.90;99.90;;;5.13;81.42;103002.09;5237289;28;20076;-78
2022/01/14 10:57:32;;;;;;;17.40;7.38;;;5.00;99.90;;;5.14;81.32;102996.16;5237127;28;20041;-78
2022/01/14 11:00:19;;;;;;;16.67;6.70;;;5.10;99.90;;;5.34;81.15;103003.16;5236670;28;20049;-78